Airfield :
LOGIN :

Register | Disclaimer

   EN    FR    IT 

 










Legend :    VFR   Marginal VFR   IFR   Intensive IFR   Very Intensive IFR
Visi :
Ceiling :
>= 8 km
>= 3000ft
5 to 8 km
1000 to 3000 ft
1500m to 5 km
500 to 1000 ft
800 to 1500m
200 to 500 ft
< 800m
< 200 ft
Symbols :   Thunderstorms  Fog  Heavy snow  Heavy precipitations  Wind > 20 kt
SIGMETs :     Misc.  Thunderstorms  Icing  Turbulence  Mountain Waves  Volcanic Ashes







- Airport Elevation : 659 ft
- IATA code : LYN
- Download approach charts


LFLY - Lyon Bron

CURRENT METAR :
  • 261230Z AUTO VRB05KT CAVOK 16/03 Q1020 NOSIG

EXPIRED METARs :
  • 261200Z AUTO 17006KT 110V210 9999 FEW046 16/03 Q1020 NOSIG
  • 261130Z AUTO 18008KT 120V230 9999 FEW045 15/05 Q1020 NOSIG
  • 261100Z AUTO 18005KT 080V250 9999 FEW040 15/05 Q1020 NOSIG
  • 261030Z AUTO 15004KT 110V190 9999 FEW037 14/06 Q1021 NOSIG
  • 261000Z AUTO VRB04KT CAVOK 13/05 Q1021 NOSIG

TAF TAF LFLY
Valid from the 26 at 12:00 until the 27 at 12:00 UTC


261100Z 2612/2712 18012KT CAVOK
BECMG 2616/2618 36012KT
BECMG 2700/2702 VRB02KT
BECMG 2706/2708 18012KT
ATIS : +33 4 72 15 87 96
No reported NOTAMs for that airfield.
1 SIGMET reported for the Marseille FIR (LFMM) :
 
Severe turbulence
LFMM SIGMET 1 VALID 261000/261400 LFPW
LFMM MARSEILLE FIR/UIR SEV TURB FCST WI N4415 E00700 - N4400 E00700 - N4330 E00900 - N4345 E00545 - N4500 E00245 - N4545 E00300 FL160/330 MOV S 10KT NC=



MET'MAP, your aeronautical weather chart ! - Copyright ORBIFLY December 2007 - Disclaimer

ORBIFLY MET'MAP TEAM :

Programming & Development : Alexandra Zaïnal
Concept & Development : Baudouin d'Aumeries
Co-Development & Prog : Marc-Olivier Méhu
Technical & hardware support : Manuel Goepfert

Contact : metmap@orbifly.com




SOURCES & CREDITS :

   NOAA